createdAt,value
2023-10-06T00:02:33.955Z,101781.44
2023-10-06T00:07:38.253Z,101790.41
2023-10-06T00:12:41.230Z,101784.94
2023-10-06T00:17:50.329Z,101773.72
2023-10-06T00:22:56.481Z,101771.19
2023-10-06T00:28:02.105Z,101780.66
2023-10-06T00:33:06.911Z,101784.47
2023-10-06T00:38:18.783Z,101777.19
2023-10-06T00:43:38.664Z,101759.78
2023-10-06T00:48:47.260Z,101747.31
2023-10-06T00:53:54.020Z,101754.59
2023-10-06T00:58:57.669Z,101777.53
2023-10-06T01:04:12.990Z,101763.44
2023-10-06T01:09:16.743Z,101767.63
2023-10-06T01:14:28.780Z,101756.75
2023-10-06T01:19:34.870Z,101772.50
2023-10-06T01:24:37.882Z,101771.88
2023-10-06T01:29:43.606Z,101761.22
2023-10-06T01:34:47.052Z,101761.69
2023-10-06T01:39:50.110Z,101775.41
2023-10-06T01:44:52.892Z,101763.94
2023-10-06T01:49:56.041Z,101771.47
2023-10-06T01:55:04.843Z,101779.66
2023-10-06T02:00:15.987Z,101766.84
2023-10-06T02:05:18.678Z,101750.38
2023-10-06T02:10:21.516Z,101755.88
2023-10-06T02:15:24.456Z,101767.91
2023-10-06T02:20:27.235Z,101762.22
2023-10-06T02:25:30.554Z,101757.56
2023-10-06T02:30:38.920Z,101767.59
2023-10-06T02:35:47.684Z,101758.59
2023-10-06T02:40:50.402Z,101731.38
2023-10-06T02:45:53.227Z,101745.75
2023-10-06T02:50:56.597Z,101748.41
2023-10-06T02:56:08.670Z,101756.00
2023-10-06T03:01:13.118Z,101756.59
2023-10-06T03:06:18.973Z,101743.28
2023-10-06T03:11:24.926Z,101721.63
2023-10-06T03:16:28.239Z,101728.44
2023-10-06T03:21:32.056Z,101724.50
2023-10-06T03:26:36.131Z,101741.00
2023-10-06T03:31:46.653Z,101722.25
2023-10-06T03:36:53.585Z,101725.28
2023-10-06T03:42:02.617Z,101754.94
2023-10-06T03:47:09.676Z,101745.78
2023-10-06T03:52:12.634Z,101740.19
2023-10-06T03:57:17.343Z,101745.59
2023-10-06T04:02:20.711Z,101750.91
2023-10-06T04:07:25.211Z,101751.88
2023-10-06T04:12:28.198Z,101735.50
2023-10-06T04:17:31.625Z,101738.72
2023-10-06T04:22:37.874Z,101719.06
2023-10-06T04:27:40.613Z,101704.44
2023-10-06T04:32:44.549Z,101709.28
2023-10-06T04:37:50.337Z,101708.06
2023-10-06T04:42:53.133Z,101705.19
2023-10-06T04:47:57.236Z,101709.25
2023-10-06T04:52:59.949Z,101710.53
2023-10-06T04:58:04.364Z,101709.44
2023-10-06T05:03:08.542Z,101711.72
2023-10-06T05:08:16.082Z,101711.78
2023-10-06T05:13:19.044Z,101708.78
2023-10-06T05:18:21.883Z,101722.44
2023-10-06T05:23:24.503Z,101710.53
2023-10-06T05:28:28.376Z,101716.09
2023-10-06T05:33:31.166Z,101706.88
2023-10-06T05:38:34.910Z,101708.34
2023-10-06T05:43:38.214Z,101702.31
2023-10-06T05:48:41.603Z,101712.38
2023-10-06T05:53:45.656Z,101700.09
2023-10-06T05:58:49.459Z,101698.50
2023-10-06T06:03:53.121Z,101694.97
2023-10-06T06:08:57.560Z,101680.75
2023-10-06T06:14:15.027Z,101697.38
2023-10-06T06:19:19.978Z,101701.25
2023-10-06T06:24:26.061Z,101690.28
2023-10-06T06:29:31.256Z,101692.84
2023-10-06T06:34:34.069Z,101676.03
2023-10-06T06:39:38.789Z,101670.56
2023-10-06T06:44:49.477Z,101663.53
2023-10-06T06:49:53.338Z,101672.13
2023-10-06T06:54:57.262Z,101660.47
2023-10-06T07:00:00.364Z,101648.25
2023-10-06T07:05:03.574Z,101648.78
2023-10-06T07:10:15.575Z,101622.94
2023-10-06T07:15:52.345Z,101631.72
2023-10-06T07:20:55.229Z,101613.47
2023-10-06T07:25:57.859Z,101627.69
2023-10-06T07:31:00.536Z,101601.78
2023-10-06T07:36:05.032Z,101577.22
2023-10-06T07:41:08.071Z,101596.00
2023-10-06T07:46:12.611Z,101597.75
2023-10-06T07:51:15.663Z,101591.69
2023-10-06T07:56:20.441Z,101587.25
2023-10-06T08:01:23.795Z,101578.47
2023-10-06T08:06:31.527Z,101573.53
2023-10-06T08:11:34.612Z,101554.38
2023-10-06T08:16:38.732Z,101542.91
2023-10-06T08:21:42.665Z,101549.38
2023-10-06T08:26:51.011Z,101522.16
2023-10-06T08:31:55.726Z,101530.84
2023-10-06T08:37:02.287Z,101522.53
2023-10-06T08:42:07.085Z,101502.53
2023-10-06T08:47:27.955Z,101507.38
2023-10-06T08:52:34.413Z,101500.28
2023-10-06T08:57:38.322Z,101494.63
2023-10-06T09:02:43.102Z,101477.72
2023-10-06T09:08:06.867Z,101461.97
2023-10-06T09:13:18.295Z,101467.66
2023-10-06T09:18:36.055Z,101465.88
2023-10-06T09:23:41.388Z,101442.53
2023-10-06T09:28:52.359Z,101442.44
2023-10-06T09:33:56.432Z,101408.56
2023-10-06T09:39:02.601Z,101413.41
2023-10-06T09:44:11.061Z,101420.00
2023-10-06T09:49:17.797Z,101414.22
2023-10-06T09:54:24.199Z,101405.56
2023-10-06T09:59:28.094Z,101399.88
2023-10-06T10:04:33.206Z,101379.44
2023-10-06T10:09:36.857Z,101377.56
2023-10-06T10:14:59.349Z,101377.41
2023-10-06T10:20:04.376Z,101376.53
2023-10-06T10:30:16.193Z,101373.31
2023-10-06T10:35:20.227Z,101353.66
2023-10-06T10:40:28.290Z,101331.47
2023-10-06T10:45:45.265Z,101340.28
2023-10-06T10:50:54.511Z,101334.38
2023-10-06T10:55:58.001Z,101326.06
2023-10-06T11:01:19.621Z,101328.84
2023-10-06T11:06:22.430Z,101320.97
2023-10-06T11:11:27.059Z,101289.59
2023-10-06T11:16:30.655Z,101303.75
2023-10-06T11:21:33.569Z,101301.19
2023-10-06T11:26:36.565Z,101294.56
2023-10-06T11:31:44.769Z,101282.28
2023-10-06T11:36:48.406Z,101262.06
2023-10-06T11:41:57.384Z,101271.44
2023-10-06T11:47:01.072Z,101261.13
2023-10-06T11:52:06.954Z,101258.94
2023-10-06T11:57:09.849Z,101253.69
2023-10-06T12:02:12.666Z,101262.59
2023-10-06T12:07:34.518Z,101258.78
2023-10-06T12:12:37.807Z,101261.44
2023-10-06T12:17:40.908Z,101235.47
2023-10-06T12:22:48.570Z,101225.78
2023-10-06T12:27:52.076Z,101216.66
2023-10-06T12:32:59.682Z,101220.69
2023-10-06T12:38:04.027Z,101200.16
2023-10-06T12:43:08.692Z,101198.41
2023-10-06T12:48:11.517Z,101188.53
2023-10-06T12:53:14.714Z,101183.09
2023-10-06T12:58:18.111Z,101177.19
2023-10-06T13:03:20.929Z,101173.69
2023-10-06T13:08:26.515Z,101168.94
2023-10-06T13:13:29.470Z,101141.44
2023-10-06T13:18:32.307Z,101157.53
2023-10-06T13:23:36.150Z,101147.09
2023-10-06T13:28:40.617Z,101158.22
2023-10-06T13:33:43.449Z,101150.06
2023-10-06T13:38:46.285Z,101162.88
2023-10-06T13:43:49.654Z,101149.97
2023-10-06T13:48:52.632Z,101134.69
2023-10-06T13:53:57.568Z,101141.28
2023-10-06T13:59:00.458Z,101158.31
2023-10-06T14:04:06.787Z,101188.03
2023-10-06T14:09:12.470Z,101164.81
2023-10-06T14:14:35.304Z,101106.19
2023-10-06T14:19:38.320Z,101097.09
2023-10-06T14:24:41.451Z,101121.78
2023-10-06T14:29:45.463Z,101128.97
2023-10-06T14:34:59.569Z,101135.69
2023-10-06T14:40:21.093Z,101187.91
2023-10-06T14:45:42.648Z,101193.63
2023-10-06T14:50:45.371Z,101228.91
2023-10-06T14:55:48.948Z,101202.44
2023-10-06T15:00:51.762Z,101222.88
2023-10-06T15:05:54.621Z,101193.31
2023-10-06T15:11:00.786Z,101210.72
2023-10-06T15:16:07.901Z,101214.34
2023-10-06T15:21:14.993Z,101252.97
2023-10-06T15:26:19.570Z,101217.94
2023-10-06T15:31:24.246Z,101202.13
2023-10-06T15:36:28.430Z,101242.44
2023-10-06T15:41:32.761Z,101270.88
2023-10-06T15:46:36.034Z,101230.25
2023-10-06T15:51:43.747Z,101211.19
2023-10-06T15:56:48.282Z,101217.72
2023-10-06T16:01:51.095Z,101178.03
2023-10-06T16:06:54.738Z,101150.75
2023-10-06T16:11:58.903Z,101139.69
2023-10-06T16:17:02.248Z,101151.00
2023-10-06T16:32:58.300Z,101114.03
2023-10-06T16:38:01.365Z,101102.97
2023-10-06T16:43:07.394Z,101121.50
2023-10-06T16:48:13.002Z,101108.50
2023-10-06T16:53:18.133Z,101081.47
2023-10-06T16:58:21.362Z,101075.38
2023-10-06T17:03:25.678Z,101060.50
2023-10-06T17:08:28.751Z,101064.91
2023-10-06T17:13:31.497Z,101070.94
2023-10-06T17:18:37.853Z,101075.09
2023-10-06T17:23:40.692Z,101073.72
2023-10-06T17:28:43.498Z,101061.84
2023-10-06T17:33:46.685Z,101077.00
2023-10-06T17:38:49.366Z,101065.97
2023-10-06T17:43:53.670Z,101069.00
2023-10-06T17:48:58.393Z,101062.09
2023-10-06T17:54:01.574Z,101072.31
2023-10-06T17:59:04.268Z,101064.88
2023-10-06T18:04:07.111Z,101055.50
2023-10-06T18:09:10.994Z,101049.44
2023-10-06T18:14:14.108Z,101051.38
2023-10-06T18:19:17.771Z,101053.56
2023-10-06T18:24:20.356Z,101046.66
2023-10-06T18:29:24.632Z,101022.66
2023-10-06T18:34:27.633Z,101009.44
2023-10-06T18:39:31.268Z,101023.47
2023-10-06T18:44:34.007Z,101019.63
2023-10-06T18:49:36.765Z,100992.59
2023-10-06T18:54:39.614Z,100981.56
2023-10-06T18:59:42.437Z,100997.28
2023-10-06T19:04:45.461Z,100974.09
2023-10-06T19:09:48.266Z,100962.53
2023-10-06T19:14:51.037Z,100974.66
2023-10-06T19:19:53.831Z,100945.69
2023-10-06T19:24:57.842Z,100951.22
2023-10-06T19:30:00.929Z,100984.88
2023-10-06T19:35:08.707Z,101001.41
2023-10-06T19:40:14.172Z,101030.97
2023-10-06T19:45:17.226Z,101028.75
2023-10-06T19:50:20.293Z,101059.38
2023-10-06T19:55:23.484Z,101092.78
2023-10-06T20:00:29.205Z,101082.84
2023-10-06T20:05:35.797Z,101066.41
2023-10-06T20:10:38.830Z,101065.88
2023-10-06T20:15:41.623Z,101056.44
2023-10-06T20:20:44.377Z,101045.38
2023-10-06T20:25:47.161Z,101040.97
2023-10-06T20:30:50.146Z,101058.88
2023-10-06T20:35:53.181Z,101059.94
2023-10-06T20:40:56.031Z,101052.22
2023-10-06T20:46:01.243Z,101043.09
2023-10-06T20:51:06.971Z,101029.84
2023-10-06T20:56:09.907Z,101012.16
2023-10-06T21:01:13.572Z,101034.81
2023-10-06T21:06:17.137Z,101040.63
2023-10-06T21:11:20.075Z,101011.03
2023-10-06T21:16:23.448Z,101013.78
2023-10-06T21:21:26.545Z,101022.06
2023-10-06T21:26:29.354Z,101024.31
2023-10-06T21:31:32.406Z,101032.22
2023-10-06T21:36:35.256Z,101041.59
2023-10-06T21:41:37.992Z,101047.94
2023-10-06T21:46:41.274Z,101035.69
2023-10-06T21:51:44.626Z,101046.06
2023-10-06T21:56:47.504Z,101035.69
2023-10-06T22:01:50.237Z,101045.91
2023-10-06T22:06:55.949Z,101041.91
2023-10-06T22:12:00.228Z,101055.25
2023-10-06T22:17:06.911Z,101040.41
2023-10-06T22:22:11.788Z,101068.28
2023-10-06T22:27:15.131Z,101063.88
2023-10-06T22:32:18.022Z,101052.50
2023-10-06T22:37:22.146Z,101076.00
2023-10-06T22:42:25.006Z,101076.59
2023-10-06T22:47:27.876Z,101088.22
2023-10-06T22:52:30.680Z,101088.34
2023-10-06T22:57:33.760Z,101069.72
2023-10-06T23:02:39.567Z,101081.88
2023-10-06T23:07:44.769Z,101073.00
2023-10-06T23:12:54.000Z,101103.19
2023-10-06T23:17:58.081Z,101100.59
2023-10-06T23:23:00.956Z,101084.66
2023-10-06T23:28:06.879Z,101076.91
2023-10-06T23:33:13.776Z,101088.81
2023-10-06T23:38:17.044Z,101096.28
2023-10-06T23:43:21.181Z,101097.31
2023-10-06T23:48:24.685Z,101087.50
2023-10-06T23:53:30.485Z,101092.25
2023-10-06T23:58:34.866Z,101087.97
